createdAt,value
2019-06-08T00:01:28.061Z,83.50
2019-06-08T00:03:54.211Z,84.60
2019-06-08T00:06:20.773Z,85.30
2019-06-08T00:08:46.976Z,85.00
2019-06-08T00:11:13.434Z,85.30
2019-06-08T00:13:39.852Z,85.30
2019-06-08T00:16:05.865Z,85.10
2019-06-08T00:18:31.899Z,85.20
2019-06-08T00:20:58.240Z,84.90
2019-06-08T00:23:24.261Z,83.30
2019-06-08T00:25:50.313Z,83.90
2019-06-08T00:28:18.877Z,84.40
2019-06-08T00:30:45.292Z,83.60
2019-06-08T00:33:12.356Z,83.60
2019-06-08T00:35:38.374Z,82.80
2019-06-08T00:38:04.682Z,80.80
2019-06-08T00:40:30.758Z,82.70
2019-06-08T00:42:56.765Z,83.00
2019-06-08T00:45:23.584Z,82.70
2019-06-08T00:47:50.308Z,83.00
2019-06-08T00:50:16.720Z,80.10
2019-06-08T00:52:42.835Z,80.90
2019-06-08T00:55:08.884Z,79.70
2019-06-08T00:57:34.895Z,79.20
2019-06-08T01:00:10.240Z,77.60
2019-06-08T01:02:30.574Z,77.20
2019-06-08T01:04:56.581Z,78.30
2019-06-08T01:07:22.583Z,77.90
2019-06-08T01:09:48.708Z,77.70
2019-06-08T01:12:14.723Z,77.00
2019-06-08T01:14:40.755Z,76.80
2019-06-08T01:17:06.907Z,76.80
2019-06-08T01:19:32.915Z,75.00
2019-06-08T01:21:58.935Z,75.60
2019-06-08T01:24:25.665Z,76.00
2019-06-08T01:27:11.835Z,75.40
2019-06-08T01:29:37.999Z,74.80
2019-06-08T01:32:04.066Z,74.50
2019-06-08T01:34:30.939Z,75.20
2019-06-08T01:36:57.179Z,74.60
2019-06-08T01:39:23.199Z,75.60
2019-06-08T01:41:49.207Z,73.90
2019-06-08T01:44:15.325Z,72.90
2019-06-08T01:46:41.900Z,74.80
2019-06-08T01:49:08.292Z,76.40
2019-06-08T01:51:34.497Z,71.90
2019-06-08T01:54:00.499Z,73.00
2019-06-08T01:56:27.098Z,74.00
2019-06-08T01:58:53.259Z,72.80
2019-06-08T02:01:19.282Z,72.20
2019-06-08T02:03:45.344Z,71.80
2019-06-08T02:06:11.363Z,72.00
2019-06-08T02:08:37.378Z,71.40
2019-06-08T02:11:03.688Z,71.70
2019-06-08T02:13:30.985Z,71.80
2019-06-08T02:15:57.252Z,72.40
2019-06-08T02:18:36.603Z,71.10
2019-06-08T02:20:51.295Z,71.40
2019-06-08T02:23:17.304Z,71.10
2019-06-08T02:25:43.317Z,71.20
2019-06-08T02:28:09.443Z,71.30
2019-06-08T02:30:38.574Z,70.90
2019-06-08T02:33:03.442Z,72.10
2019-06-08T02:35:30.702Z,70.30
2019-06-08T02:37:56.894Z,71.20
2019-06-08T02:40:27.408Z,71.80
2019-06-08T02:42:53.685Z,70.30
2019-06-08T02:45:19.744Z,69.80
2019-06-08T02:47:45.884Z,70.80
2019-06-08T02:50:13.272Z,69.90
2019-06-08T02:52:40.748Z,69.70
2019-06-08T02:55:08.187Z,70.00
2019-06-08T02:57:37.474Z,69.70
2019-06-08T03:00:05.925Z,69.30
2019-06-08T03:02:33.758Z,69.00
2019-06-08T03:05:00.999Z,69.20
2019-06-08T03:07:27.322Z,69.90
2019-06-08T03:09:53.636Z,69.60
2019-06-08T03:12:19.656Z,69.20
2019-06-08T03:14:45.671Z,69.40
2019-06-08T03:17:11.685Z,69.60
2019-06-08T03:19:37.716Z,68.30
2019-06-08T03:22:03.728Z,67.90
2019-06-08T03:24:29.842Z,68.10
2019-06-08T03:26:56.095Z,68.70
2019-06-08T03:29:22.163Z,68.40
2019-06-08T03:31:55.569Z,68.50
2019-06-08T03:34:16.677Z,67.80
2019-06-08T03:36:53.722Z,67.30
2019-06-08T03:39:10.613Z,67.90
2019-06-08T03:41:38.563Z,67.40
2019-06-08T03:44:04.807Z,67.40
2019-06-08T03:46:30.825Z,67.20
2019-06-08T03:48:56.939Z,67.10
2019-06-08T03:51:23.011Z,65.70
2019-06-08T03:53:49.343Z,65.90
2019-06-08T03:56:15.375Z,66.40
2019-06-08T03:58:42.727Z,66.50
2019-06-08T04:01:09.307Z,66.40
2019-06-08T04:03:35.340Z,65.80
2019-06-08T04:06:01.353Z,65.10
2019-06-08T04:08:27.365Z,65.20
2019-06-08T04:10:53.492Z,65.40
2019-06-08T04:13:19.499Z,65.00
2019-06-08T04:15:46.931Z,64.90
2019-06-08T04:18:13.683Z,64.90
2019-06-08T04:20:40.242Z,63.80
2019-06-08T04:23:07.269Z,63.00
2019-06-08T04:25:33.429Z,63.20
2019-06-08T04:27:59.435Z,63.80
2019-06-08T04:30:25.495Z,63.20
2019-06-08T04:32:51.612Z,64.20
2019-06-08T04:35:17.623Z,62.00
2019-06-08T04:37:44.760Z,63.70
2019-06-08T04:40:12.318Z,63.10
2019-06-08T04:42:39.317Z,63.70
2019-06-08T04:45:08.402Z,63.00
2019-06-08T04:47:35.617Z,62.30
2019-06-08T04:50:21.508Z,62.30
2019-06-08T04:52:34.324Z,62.60
2019-06-08T04:55:01.245Z,62.80
2019-06-08T04:57:27.251Z,62.40
2019-06-08T04:59:53.296Z,61.90
2019-06-08T05:02:19.407Z,62.00
2019-06-08T05:04:46.998Z,61.50
2019-06-08T05:07:13.235Z,61.70
2019-06-08T05:09:41.090Z,61.70
2019-06-08T05:12:07.314Z,61.00
2019-06-08T05:14:33.358Z,60.50
2019-06-08T05:16:59.485Z,60.50
2019-06-08T05:19:25.512Z,61.10
2019-06-08T05:21:51.512Z,60.40
2019-06-08T05:24:17.560Z,60.10
2019-06-08T05:26:43.675Z,60.20
2019-06-08T05:29:14.299Z,59.50
2019-06-08T05:31:41.498Z,59.20
2019-06-08T05:34:07.662Z,58.50
2019-06-08T05:36:33.941Z,56.60
2019-06-08T05:39:00.130Z,55.60
2019-06-08T05:41:26.160Z,55.20
2019-06-08T05:43:52.175Z,55.00
2019-06-08T05:46:18.322Z,55.50
2019-06-08T05:48:45.811Z,55.60
2019-06-08T05:51:12.015Z,55.30
2019-06-08T05:53:39.689Z,54.80
2019-06-08T05:56:05.906Z,54.90
2019-06-08T05:58:32.018Z,54.90
2019-06-08T06:00:58.180Z,54.70
2019-06-08T06:03:24.211Z,54.20
2019-06-08T06:05:50.764Z,53.70
2019-06-08T06:08:19.163Z,52.60
2019-06-08T06:10:46.790Z,53.20
2019-06-08T06:13:13.063Z,52.80
2019-06-08T06:15:49.051Z,52.50
2019-06-08T06:18:21.105Z,51.60
2019-06-08T06:20:47.313Z,49.20
2019-06-08T06:23:13.744Z,49.00
2019-06-08T06:25:39.794Z,47.70
2019-06-08T06:28:06.654Z,48.20
2019-06-08T06:30:33.243Z,47.20
2019-06-08T06:32:59.486Z,48.10
2019-06-08T06:35:25.508Z,47.90
2019-06-08T06:37:52.117Z,48.30
2019-06-08T06:40:18.320Z,46.30
2019-06-08T06:42:48.138Z,45.90
2019-06-08T06:45:14.490Z,46.00
2019-06-08T06:47:48.402Z,44.70
2019-06-08T06:50:14.943Z,44.00
2019-06-08T06:52:42.613Z,43.60
2019-06-08T06:55:09.306Z,43.70
2019-06-08T06:57:36.713Z,45.30
2019-06-08T07:00:05.907Z,43.90
2019-06-08T07:02:35.067Z,44.40
2019-06-08T07:05:15.832Z,44.80
2019-06-08T07:07:39.845Z,44.20
2019-06-08T07:10:05.939Z,44.20
2019-06-08T07:12:32.273Z,44.40
2019-06-08T07:14:58.320Z,44.60
2019-06-08T07:17:26.257Z,43.40
2019-06-08T07:19:52.696Z,44.00
2019-06-08T07:22:18.822Z,44.00
2019-06-08T07:24:46.708Z,43.90
2019-06-08T07:27:12.811Z,43.00
2019-06-08T07:29:39.210Z,43.90
2019-06-08T07:32:05.231Z,43.20
2019-06-08T07:34:31.307Z,43.20
2019-06-08T07:36:57.361Z,43.40
2019-06-08T07:39:23.384Z,42.70
2019-06-08T07:41:50.221Z,41.30
2019-06-08T07:44:16.351Z,40.40
2019-06-08T07:46:42.368Z,42.10
2019-06-08T07:49:08.424Z,41.10
2019-06-08T07:51:34.453Z,41.90
2019-06-08T07:54:00.511Z,41.00
2019-06-08T07:56:27.803Z,41.40
2019-06-08T07:58:55.060Z,40.30
2019-06-08T08:01:35.291Z,39.60
2019-06-08T08:03:49.956Z,39.70
2019-06-08T08:06:16.380Z,39.40
2019-06-08T08:08:42.422Z,40.00
2019-06-08T08:11:08.451Z,39.30
2019-06-08T08:13:34.463Z,39.50
2019-06-08T08:16:00.795Z,38.30
2019-06-08T08:18:27.140Z,38.30
2019-06-08T08:20:55.873Z,39.30
2019-06-08T08:23:29.450Z,38.70
2019-06-08T08:26:01.701Z,38.10
2019-06-08T08:28:27.976Z,38.80
2019-06-08T08:30:55.426Z,38.30
2019-06-08T08:33:23.319Z,39.10
2019-06-08T08:35:50.561Z,37.00
2019-06-08T08:38:17.695Z,36.60
2019-06-08T08:40:43.894Z,36.40
2019-06-08T08:43:09.919Z,36.50
2019-06-08T08:45:37.356Z,37.10
2019-06-08T08:48:21.063Z,37.40
2019-06-08T08:50:32.663Z,37.60
2019-06-08T08:53:00.616Z,36.70
2019-06-08T08:55:27.991Z,37.00
2019-06-08T08:57:54.811Z,36.50
2019-06-08T09:00:20.916Z,35.90
2019-06-08T09:02:48.998Z,35.60
2019-06-08T09:05:14.889Z,35.50
2019-06-08T09:07:40.899Z,33.90
2019-06-08T09:10:08.549Z,32.10
2019-06-08T09:12:37.521Z,33.00
2019-06-08T09:15:08.302Z,32.80
2019-06-08T09:17:33.653Z,33.00
2019-06-08T09:20:03.305Z,30.90
2019-06-08T09:22:28.196Z,30.20
2019-06-08T09:24:56.870Z,30.50
2019-06-08T09:27:23.477Z,29.90
2019-06-08T09:29:49.513Z,29.60
2019-06-08T09:32:17.842Z,30.70
2019-06-08T09:34:43.992Z,30.10
2019-06-08T09:37:10.016Z,29.60
2019-06-08T09:39:38.347Z,29.80
2019-06-08T09:42:05.124Z,29.70
2019-06-08T09:44:33.304Z,29.70
2019-06-08T09:47:07.369Z,30.20
2019-06-08T09:49:58.865Z,29.90
2019-06-08T09:52:23.683Z,29.60
2019-06-08T09:54:49.728Z,29.60
2019-06-08T09:57:18.458Z,29.10
2019-06-08T09:59:44.135Z,28.30
2019-06-08T10:02:13.022Z,28.70
2019-06-08T10:04:38.666Z,28.70
2019-06-08T10:07:05.722Z,28.30
2019-06-08T10:09:31.902Z,28.20
2019-06-08T10:11:59.596Z,29.50
2019-06-08T10:14:28.212Z,29.90
2019-06-08T10:16:54.255Z,29.70
2019-06-08T10:19:22.457Z,29.40
2019-06-08T10:21:54.715Z,29.60
2019-06-08T10:24:20.909Z,29.20
2019-06-08T10:26:47.785Z,29.10
2019-06-08T10:29:18.255Z,29.30
2019-06-08T10:31:44.081Z,28.60
2019-06-08T10:34:11.358Z,28.90
2019-06-08T10:36:38.331Z,29.00
2019-06-08T10:39:11.286Z,29.30
2019-06-08T10:41:35.774Z,30.00
2019-06-08T10:44:03.386Z,29.90
2019-06-08T10:46:29.620Z,29.40
2019-06-08T10:48:55.672Z,29.30
2019-06-08T10:51:21.905Z,29.90
2019-06-08T10:53:52.700Z,29.90
2019-06-08T10:56:15.870Z,29.40
2019-06-08T10:58:41.901Z,29.90
2019-06-08T11:01:11.138Z,29.90
2019-06-08T11:03:38.812Z,30.10
2019-06-08T11:06:07.540Z,29.90
2019-06-08T11:08:32.869Z,29.40
2019-06-08T11:11:00.002Z,29.60
2019-06-08T11:13:28.255Z,29.70
2019-06-08T11:15:54.501Z,29.60
2019-06-08T11:18:20.611Z,28.80
2019-06-08T11:20:47.900Z,28.60
2019-06-08T11:23:14.107Z,28.50
2019-06-08T11:25:40.211Z,27.90
2019-06-08T11:28:11.844Z,28.50
2019-06-08T11:30:34.209Z,28.70
2019-06-08T11:33:01.970Z,29.60
2019-06-08T11:35:28.594Z,29.50
2019-06-08T11:37:54.809Z,29.40
2019-06-08T11:40:21.044Z,29.40
2019-06-08T11:42:48.518Z,30.00
2019-06-08T11:45:14.725Z,30.00
2019-06-08T11:47:40.959Z,28.90
2019-06-08T11:50:09.599Z,29.10
2019-06-08T11:52:35.122Z,28.70
2019-06-08T11:55:02.565Z,28.40
2019-06-08T11:57:29.427Z,28.20
2019-06-08T11:59:55.459Z,28.70
2019-06-08T12:02:22.935Z,28.30
2019-06-08T12:04:49.213Z,29.00
2019-06-08T12:07:15.238Z,28.80
2019-06-08T12:09:44.252Z,28.50
2019-06-08T12:12:17.217Z,27.70
2019-06-08T12:14:40.532Z,28.60
2019-06-08T12:17:10.841Z,28.70
2019-06-08T12:19:34.269Z,29.50
2019-06-08T12:22:00.299Z,29.70
2019-06-08T12:24:40.849Z,29.70
2019-06-08T12:26:59.996Z,29.00
2019-06-08T12:29:22.532Z,28.90
2019-06-08T12:31:48.588Z,29.00
2019-06-08T12:34:16.214Z,28.40
2019-06-08T12:36:42.596Z,27.80
2019-06-08T12:39:09.969Z,28.30
2019-06-08T12:41:37.746Z,28.20
2019-06-08T12:44:04.250Z,28.10
2019-06-08T12:46:30.314Z,28.40
2019-06-08T12:48:58.309Z,28.00
2019-06-08T12:51:24.479Z,27.10
2019-06-08T12:53:50.528Z,27.00
2019-06-08T12:56:23.317Z,27.50
2019-06-08T12:58:44.698Z,27.40
2019-06-08T13:01:11.031Z,27.90
2019-06-08T13:03:38.616Z,27.90
2019-06-08T13:06:04.751Z,27.00
2019-06-08T13:08:30.972Z,27.00
2019-06-08T13:10:57.452Z,27.10
2019-06-08T13:13:24.913Z,26.70
2019-06-08T13:15:53.987Z,25.60
2019-06-08T13:18:21.452Z,25.30
2019-06-08T13:20:51.430Z,25.60
2019-06-08T13:23:18.319Z,25.90
2019-06-08T13:25:44.071Z,25.10
2019-06-08T13:28:15.161Z,24.60
2019-06-08T13:30:41.396Z,24.20
2019-06-08T13:33:14.047Z,24.10
2019-06-08T13:35:40.321Z,23.00
2019-06-08T13:38:08.657Z,23.10
2019-06-08T13:40:34.672Z,23.90
2019-06-08T13:43:01.068Z,25.00
2019-06-08T13:45:27.906Z,24.40
2019-06-08T13:47:54.170Z,24.70
2019-06-08T13:50:22.227Z,25.50
2019-06-08T13:52:48.818Z,26.30
2019-06-08T13:55:34.593Z,26.80
2019-06-08T13:57:42.791Z,26.80
2019-06-08T14:00:09.323Z,26.80
2019-06-08T14:02:35.328Z,26.90
2019-06-08T14:05:04.602Z,27.00
2019-06-08T14:07:34.435Z,27.10
2019-06-08T14:09:58.640Z,27.20
2019-06-08T14:12:28.255Z,27.40
2019-06-08T14:14:52.818Z,27.50
2019-06-08T14:17:20.923Z,27.30
2019-06-08T14:19:48.345Z,27.70
2019-06-08T14:22:18.317Z,27.60
2019-06-08T14:24:43.227Z,27.60
2019-06-08T14:27:09.311Z,27.20
2019-06-08T14:29:35.336Z,27.10
2019-06-08T14:32:01.420Z,27.10
2019-06-08T14:34:29.487Z,27.30
2019-06-08T14:36:55.394Z,27.20
2019-06-08T14:39:22.044Z,27.30
2019-06-08T14:41:49.500Z,27.50
2019-06-08T14:44:18.347Z,27.40
2019-06-08T14:46:43.716Z,27.10
2019-06-08T14:49:09.991Z,27.10
2019-06-08T14:51:48.473Z,27.10
2019-06-08T14:54:18.521Z,27.10
2019-06-08T14:56:43.267Z,27.10
2019-06-08T14:59:09.304Z,26.60
2019-06-08T15:01:35.373Z,26.00
2019-06-08T15:04:01.409Z,25.70
2019-06-08T15:06:32.909Z,25.10
2019-06-08T15:08:58.120Z,24.20
2019-06-08T15:11:23.856Z,22.40
2019-06-08T15:13:50.003Z,21.90
2019-06-08T15:16:18.014Z,22.70
2019-06-08T15:18:43.945Z,22.80
2019-06-08T15:21:10.010Z,23.80
2019-06-08T15:23:36.020Z,24.40
2019-06-08T15:26:02.042Z,24.40
2019-06-08T15:28:31.532Z,25.30
2019-06-08T15:31:00.074Z,25.20
2019-06-08T15:33:38.364Z,25.20
2019-06-08T15:36:04.449Z,24.10
2019-06-08T15:38:32.426Z,23.50
2019-06-08T15:40:59.639Z,24.20
2019-06-08T15:43:28.267Z,23.80
2019-06-08T15:45:53.646Z,24.20
2019-06-08T15:48:20.523Z,24.40
2019-06-08T15:50:49.323Z,24.40
2019-06-08T15:53:14.603Z,24.40
2019-06-08T15:55:40.994Z,25.30
2019-06-08T15:58:08.910Z,25.20
2019-06-08T16:00:35.251Z,25.60
2019-06-08T16:03:01.292Z,25.30
2019-06-08T16:05:27.701Z,24.70
2019-06-08T16:07:54.399Z,25.30
2019-06-08T16:10:20.625Z,25.40
2019-06-08T16:12:46.950Z,25.90
2019-06-08T16:15:15.603Z,26.50
2019-06-08T16:17:44.368Z,26.40
2019-06-08T16:20:10.433Z,26.20
2019-06-08T16:22:36.665Z,26.10
2019-06-08T16:25:04.814Z,26.00
2019-06-08T16:27:32.016Z,25.30
2019-06-08T16:29:58.305Z,25.20
2019-06-08T16:32:24.671Z,25.20
2019-06-08T16:34:50.735Z,25.20
2019-06-08T16:37:16.836Z,25.40
2019-06-08T16:39:42.951Z,25.60
2019-06-08T16:42:11.520Z,26.40
2019-06-08T16:44:38.632Z,26.60
2019-06-08T16:47:04.879Z,26.90
2019-06-08T16:49:35.322Z,26.70
2019-06-08T16:52:00.840Z,27.00
2019-06-08T16:54:32.721Z,27.30
2019-06-08T16:57:10.567Z,26.70
2019-06-08T16:59:34.464Z,27.10
2019-06-08T17:02:00.504Z,27.10
2019-06-08T17:04:41.163Z,27.50
2019-06-08T17:07:12.218Z,28.70
2019-06-08T17:09:47.486Z,29.00
2019-06-08T17:12:13.529Z,29.40
2019-06-08T17:14:42.175Z,28.40
2019-06-08T17:17:11.891Z,28.90
2019-06-08T17:19:38.490Z,28.70
2019-06-08T17:22:04.704Z,28.90
2019-06-08T17:24:30.812Z,28.40
2019-06-08T17:26:56.827Z,29.00
2019-06-08T17:29:22.847Z,28.50
2019-06-08T17:31:51.699Z,28.90
2019-06-08T17:34:34.336Z,28.50
2019-06-08T17:37:06.616Z,28.40
2019-06-08T17:39:33.742Z,28.30
2019-06-08T17:42:00.077Z,28.20
2019-06-08T17:44:26.216Z,28.10
2019-06-08T17:46:52.227Z,28.10
2019-06-08T17:49:18.247Z,28.00
2019-06-08T17:51:44.506Z,28.20
2019-06-08T17:54:10.622Z,28.00
2019-06-08T17:56:37.149Z,27.80
2019-06-08T17:59:05.947Z,28.00
2019-06-08T18:01:33.891Z,28.10
2019-06-08T18:04:00.095Z,27.90
2019-06-08T18:06:27.178Z,27.60
2019-06-08T18:08:53.891Z,27.70
2019-06-08T18:11:22.491Z,28.00
2019-06-08T18:13:48.915Z,27.50
2019-06-08T18:16:16.981Z,27.70
2019-06-08T18:18:44.270Z,27.80
2019-06-08T18:21:17.704Z,27.70
2019-06-08T18:23:48.227Z,27.80
2019-06-08T18:26:14.428Z,28.00
2019-06-08T18:28:42.262Z,27.80
2019-06-08T18:31:08.956Z,27.60
2019-06-08T18:33:36.252Z,27.50
2019-06-08T18:36:08.744Z,27.40
2019-06-08T18:38:34.922Z,30.30
2019-06-08T18:41:03.666Z,32.60
2019-06-08T18:43:29.820Z,33.30
2019-06-08T18:45:57.697Z,33.80
2019-06-08T18:48:23.805Z,34.30
2019-06-08T18:50:50.787Z,34.40
2019-06-08T18:53:18.888Z,34.50
2019-06-08T18:55:50.322Z,34.60
2019-06-08T18:58:23.995Z,34.50
2019-06-08T19:00:48.516Z,33.70
2019-06-08T19:03:17.694Z,33.70
2019-06-08T19:05:45.943Z,34.40
2019-06-08T19:08:19.761Z,34.60
2019-06-08T19:10:50.959Z,34.40
2019-06-08T19:13:18.042Z,35.50
2019-06-08T19:15:46.145Z,36.20
2019-06-08T19:18:12.228Z,35.00
2019-06-08T19:20:43.098Z,36.00
2019-06-08T19:23:09.441Z,36.50
2019-06-08T19:25:44.524Z,37.10
2019-06-08T19:28:09.527Z,37.10
2019-06-08T19:30:37.915Z,37.70
2019-06-08T19:33:07.327Z,37.10
2019-06-08T19:35:34.789Z,37.40
2019-06-08T19:38:01.106Z,37.60
2019-06-08T19:40:27.619Z,37.80
2019-06-08T19:43:01.359Z,37.80
2019-06-08T19:45:27.655Z,37.30
2019-06-08T19:47:57.755Z,37.70
2019-06-08T19:50:23.863Z,37.10
2019-06-08T19:52:53.314Z,37.10
2019-06-08T19:55:18.277Z,37.10
2019-06-08T19:57:45.404Z,37.10
2019-06-08T20:00:12.246Z,37.20
2019-06-08T20:02:38.299Z,36.40
2019-06-08T20:05:04.322Z,36.20
2019-06-08T20:07:30.364Z,35.60
2019-06-08T20:09:57.114Z,35.90
2019-06-08T20:12:23.388Z,35.70
2019-06-08T20:14:51.081Z,35.50
2019-06-08T20:17:19.365Z,34.50
2019-06-08T20:19:47.648Z,34.30
2019-06-08T20:22:13.512Z,34.60
2019-06-08T20:24:39.644Z,33.80
2019-06-08T20:27:07.748Z,33.40
2019-06-08T20:29:33.669Z,33.10
2019-06-08T20:32:18.135Z,33.00
2019-06-08T20:34:52.618Z,32.70
2019-06-08T20:37:20.211Z,32.10
2019-06-08T20:40:01.661Z,32.40
2019-06-08T20:42:14.165Z,32.40
2019-06-08T20:44:40.485Z,32.20
2019-06-08T20:47:08.431Z,32.30
2019-06-08T20:49:34.415Z,32.50
2019-06-08T20:52:02.360Z,32.50
2019-06-08T20:54:28.376Z,32.70
2019-06-08T20:56:54.395Z,32.90
2019-06-08T20:59:29.944Z,32.60
2019-06-08T21:01:48.922Z,32.60
2019-06-08T21:04:18.190Z,32.60
2019-06-08T21:06:48.683Z,33.00
2019-06-08T21:09:23.312Z,33.80
2019-06-08T21:11:54.142Z,33.40
2019-06-08T21:14:20.299Z,33.90
2019-06-08T21:16:48.939Z,34.40
2019-06-08T21:19:17.436Z,34.60
2019-06-08T21:21:46.080Z,34.70
2019-06-08T21:24:13.487Z,34.90
2019-06-08T21:26:39.529Z,35.10
2019-06-08T21:29:08.071Z,35.30
2019-06-08T21:31:33.492Z,35.50
2019-06-08T21:34:10.745Z,35.40
2019-06-08T21:36:37.631Z,35.50
2019-06-08T21:39:05.463Z,35.50
2019-06-08T21:41:31.502Z,35.50
2019-06-08T21:44:01.660Z,35.40
2019-06-08T21:46:27.546Z,35.80
2019-06-08T21:48:54.586Z,36.10
2019-06-08T21:51:20.665Z,36.10
2019-06-08T21:53:50.861Z,36.20
2019-06-08T21:56:18.184Z,35.60
2019-06-08T21:58:51.463Z,36.10
2019-06-08T22:01:18.342Z,36.20
2019-06-08T22:03:50.172Z,36.10
2019-06-08T22:06:17.743Z,36.00
2019-06-08T22:08:43.918Z,35.70
2019-06-08T22:11:13.835Z,36.00
2019-06-08T22:13:39.866Z,35.90
2019-06-08T22:16:08.157Z,36.30
2019-06-08T22:18:34.625Z,36.40
2019-06-08T22:21:08.210Z,36.70
2019-06-08T22:23:36.707Z,36.70
2019-06-08T22:26:08.506Z,36.70
2019-06-08T22:28:40.131Z,37.40
2019-06-08T22:31:08.005Z,36.60
2019-06-08T22:33:34.078Z,36.70
2019-06-08T22:36:00.111Z,36.70
2019-06-08T22:38:26.346Z,37.10
2019-06-08T22:40:58.749Z,36.80
2019-06-08T22:43:25.816Z,36.30
2019-06-08T22:45:52.825Z,36.30
2019-06-08T22:48:19.055Z,35.90
2019-06-08T22:50:47.536Z,36.10
2019-06-08T22:53:13.085Z,35.90
2019-06-08T22:55:39.146Z,35.80
2019-06-08T22:58:07.547Z,35.80
2019-06-08T23:00:47.959Z,35.80
2019-06-08T23:03:03.767Z,35.70
2019-06-08T23:05:29.288Z,35.80
2019-06-08T23:07:59.087Z,35.90
2019-06-08T23:10:23.229Z,36.10
2019-06-08T23:12:49.252Z,36.40
2019-06-08T23:15:15.274Z,37.00
2019-06-08T23:17:41.291Z,37.10
2019-06-08T23:20:08.970Z,37.50
2019-06-08T23:22:38.166Z,37.90
2019-06-08T23:25:04.463Z,38.00
2019-06-08T23:27:30.839Z,38.30
2019-06-08T23:30:00.027Z,38.50
2019-06-08T23:32:24.763Z,38.90
2019-06-08T23:34:50.911Z,39.30
2019-06-08T23:37:18.288Z,39.30
2019-06-08T23:39:44.432Z,39.60
2019-06-08T23:42:10.487Z,39.70
2019-06-08T23:44:37.762Z,40.00
2019-06-08T23:47:04.489Z,40.20
2019-06-08T23:49:31.082Z,40.40
2019-06-08T23:51:59.661Z,40.90
2019-06-08T23:54:25.015Z,41.00
2019-06-08T23:56:51.255Z,41.40
2019-06-08T23:59:17.812Z,41.40
